Time;durP1;ratioP1;P1;durP2;ratioP2;P2;SDS_P1;SDS_P2;PMS_P1;PMS_P2;Temp;Humidity;BMP_temperature;BMP_pressure;BME280_temperature;BME280_humidity;BME280_pressure;Samples;Min_cycle;Max_cycle;Signal;HPM_P1;HPM_P2
2022/12/08 00:01:47;;;;;;;21.23;13.47;;;;;;;;;;5001727;28;20270;-81
2022/12/08 00:04:14;;;;;;;20.17;13.60;;;;;;;;;;5010179;28;20242;-81
2022/12/08 00:09:36;;;;;;;20.53;13.87;;;;;;;;;;5004713;28;20202;-81
2022/12/08 00:12:15;;;;;;;18.90;13.37;;;;;;;;;;5001790;28;20271;-81
2022/12/08 00:14:42;;;;;;;22.00;14.77;;;;;;;;;;4977293;28;20549;-80
2022/12/08 00:17:09;;;;;;;22.57;14.07;;;;;;;;;;5003367;28;20202;-81
2022/12/08 00:19:37;;;;;;;25.03;14.87;;;;;;;;;;5002348;28;20294;-81
2022/12/08 00:22:04;;;;;;;20.90;13.93;;;;;;;;;;5003631;28;20271;-80
2022/12/08 00:24:32;;;;;;;23.23;14.40;;;;;;;;;;5003487;28;20218;-80
2022/12/08 00:26:58;;;;;;;22.07;14.80;;;;;;;;;;5008335;28;20253;-81
2022/12/08 00:29:25;;;;;;;23.63;14.53;;;;;;;;;;4997590;28;20246;-81
2022/12/08 00:31:51;;;;;;;20.60;14.57;;;;;;;;;;5001696;28;20196;-81
2022/12/08 00:34:17;;;;;;;21.77;14.03;;;;;;;;;;5006939;28;20890;-81
2022/12/08 00:36:43;;;;;;;21.77;15.03;;;;;;;;;;5006301;28;20278;-81
2022/12/08 00:39:13;;;;;;;19.07;13.23;;;;;;;;;;5016004;28;20217;-81
2022/12/08 00:42:22;;;;;;;22.27;14.77;;;;;;;;;;5011197;28;20792;-81
2022/12/08 00:44:29;;;;;;;21.40;14.53;;;;;;;;;;4965895;28;20234;-81
2022/12/08 00:46:55;;;;;;;20.40;13.83;;;;;;;;;;5001024;28;20298;-81
2022/12/08 00:49:22;;;;;;;23.33;14.50;;;;;;;;;;5017101;28;20256;-80
2022/12/08 00:51:48;;;;;;;21.27;13.83;;;;;;;;;;5014450;28;20213;-81
2022/12/08 00:54:15;;;;;;;22.00;14.23;;;;;;;;;;4993075;28;20668;-81
2022/12/08 00:56:42;;;;;;;21.10;13.60;;;;;;;;;;4984189;28;20511;-81
2022/12/08 00:59:08;;;;;;;20.47;13.67;;;;;;;;;;5002312;28;20725;-81
2022/12/08 01:01:34;;;;;;;18.73;12.63;;;;;;;;;;4980104;28;20273;-81
2022/12/08 01:04:04;;;;;;;21.53;14.10;;;;;;;;;;4997892;28;20182;-81
2022/12/08 01:06:30;;;;;;;21.20;13.20;;;;;;;;;;4996062;28;20290;-81
2022/12/08 01:08:56;;;;;;;21.80;13.77;;;;;;;;;;4986570;28;20203;-80
2022/12/08 01:11:23;;;;;;;21.13;14.10;;;;;;;;;;4986133;28;20190;-80
2022/12/08 01:13:49;;;;;;;22.60;14.40;;;;;;;;;;5000895;28;20183;-81
2022/12/08 01:16:22;;;;;;;21.57;14.17;;;;;;;;;;5002419;28;20207;-82
2022/12/08 01:18:48;;;;;;;23.73;14.73;;;;;;;;;;5003039;28;20222;-81
2022/12/08 01:21:15;;;;;;;22.63;15.07;;;;;;;;;;5008482;28;20178;-81
2022/12/08 01:23:41;;;;;;;20.97;14.20;;;;;;;;;;5002122;28;20183;-81
2022/12/08 01:26:09;;;;;;;22.50;14.77;;;;;;;;;;4988712;28;20245;-81
2022/12/08 01:28:35;;;;;;;21.40;13.80;;;;;;;;;;5009115;28;20215;-79
2022/12/08 01:31:02;;;;;;;19.43;12.90;;;;;;;;;;5008331;28;20186;-81
2022/12/08 01:33:29;;;;;;;16.70;12.00;;;;;;;;;;5007590;28;20207;-81
2022/12/08 01:35:55;;;;;;;23.13;13.73;;;;;;;;;;5004383;28;20659;-81
2022/12/08 01:38:22;;;;;;;21.80;13.23;;;;;;;;;;5015228;28;20240;-80
2022/12/08 01:40:48;;;;;;;20.63;13.17;;;;;;;;;;5005625;28;20662;-81
2022/12/08 01:43:18;;;;;;;21.60;13.90;;;;;;;;;;5011512;28;20183;-81
2022/12/08 01:45:45;;;;;;;19.43;12.90;;;;;;;;;;5006450;28;20195;-82
2022/12/08 01:48:17;;;;;;;18.50;12.33;;;;;;;;;;5003145;28;20214;-80
2022/12/08 01:50:48;;;;;;;19.53;12.17;;;;;;;;;;5002637;28;20718;-80
2022/12/08 01:53:17;;;;;;;19.27;13.17;;;;;;;;;;4999337;28;20192;-80
2022/12/08 01:55:46;;;;;;;19.67;12.37;;;;;;;;;;5006800;28;20187;-80
2022/12/08 01:58:15;;;;;;;19.47;12.80;;;;;;;;;;5006652;28;20202;-80
2022/12/08 02:00:41;;;;;;;23.10;12.50;;;;;;;;;;5005381;28;20238;-81
2022/12/08 02:03:11;;;;;;;19.10;12.60;;;;;;;;;;5008248;28;20199;-81
2022/12/08 02:05:38;;;;;;;19.37;13.07;;;;;;;;;;5007281;28;20179;-80
2022/12/08 02:08:06;;;;;;;19.20;13.03;;;;;;;;;;5008829;28;20215;-81
2022/12/08 02:10:34;;;;;;;19.77;13.83;;;;;;;;;;4995490;28;20182;-80
2022/12/08 02:13:00;;;;;;;20.60;12.63;;;;;;;;;;5007165;28;20644;-81
2022/12/08 02:15:47;;;;;;;17.73;11.67;;;;;;;;;;5011770;28;20168;-80
2022/12/08 02:18:30;;;;;;;18.37;12.60;;;;;;;;;;4999722;28;20191;-81
2022/12/08 02:20:57;;;;;;;19.30;13.10;;;;;;;;;;5015357;28;20183;-81
2022/12/08 02:23:23;;;;;;;18.13;12.40;;;;;;;;;;5012828;28;20179;-81
2022/12/08 02:26:08;;;;;;;22.40;12.73;;;;;;;;;;5003971;28;20814;-80
2022/12/08 02:28:52;;;;;;;19.07;12.00;;;;;;;;;;5002900;28;21106;-81
2022/12/08 02:31:30;;;;;;;20.40;11.93;;;;;;;;;;5004929;28;20179;-80
2022/12/08 02:34:02;;;;;;;17.33;12.13;;;;;;;;;;5002800;28;20183;-81
2022/12/08 02:36:40;;;;;;;18.33;12.50;;;;;;;;;;5021628;28;20178;-81
2022/12/08 02:39:12;;;;;;;17.90;12.60;;;;;;;;;;5018502;28;20630;-81
2022/12/08 02:41:46;;;;;;;17.83;11.80;;;;;;;;;;5010702;28;20191;-81
2022/12/08 02:44:16;;;;;;;19.27;12.77;;;;;;;;;;5020288;28;20237;-80
2022/12/08 02:46:49;;;;;;;18.53;12.77;;;;;;;;;;5016172;28;20218;-81
2022/12/08 02:49:15;;;;;;;20.20;13.10;;;;;;;;;;5011223;28;20266;-81
2022/12/08 02:51:42;;;;;;;20.97;12.40;;;;;;;;;;4990038;28;20593;-82
2022/12/08 02:54:08;;;;;;;18.03;12.10;;;;;;;;;;5000886;28;20229;-81
2022/12/08 02:56:40;;;;;;;19.83;12.83;;;;;;;;;;5016760;28;20178;-81
2022/12/08 02:59:29;;;;;;;20.07;13.00;;;;;;;;;;5000102;28;20233;-81
2022/12/08 03:02:10;;;;;;;19.80;13.40;;;;;;;;;;4976917;28;20295;-81
2022/12/08 03:04:51;;;;;;;18.73;12.07;;;;;;;;;;5008111;28;20201;-81
2022/12/08 03:07:38;;;;;;;19.13;11.70;;;;;;;;;;5006980;28;20266;-81
2022/12/08 03:10:13;;;;;;;17.30;11.87;;;;;;;;;;4967957;28;20211;-80
2022/12/08 03:12:39;;;;;;;17.87;12.57;;;;;;;;;;5008332;28;20190;-81
2022/12/08 03:15:08;;;;;;;18.40;12.13;;;;;;;;;;4995303;28;20286;-81
2022/12/08 03:17:36;;;;;;;19.60;12.50;;;;;;;;;;5000304;28;20195;-81
2022/12/08 03:20:06;;;;;;;18.80;12.13;;;;;;;;;;5007157;28;20269;-81
2022/12/08 03:22:32;;;;;;;18.17;11.70;;;;;;;;;;5009097;28;20262;-81
2022/12/08 03:24:58;;;;;;;18.43;11.73;;;;;;;;;;5000214;28;20195;-81
2022/12/08 03:27:26;;;;;;;19.50;12.80;;;;;;;;;;5022497;28;20210;-81
2022/12/08 03:29:53;;;;;;;16.67;11.40;;;;;;;;;;5019153;28;20226;-81
2022/12/08 03:32:28;;;;;;;17.60;11.37;;;;;;;;;;5003703;28;20195;-81
2022/12/08 03:34:56;;;;;;;21.50;12.57;;;;;;;;;;4983023;28;20534;-81
2022/12/08 03:37:22;;;;;;;16.97;11.60;;;;;;;;;;5013020;28;20193;-81
2022/12/08 03:39:48;;;;;;;19.37;12.63;;;;;;;;;;5019043;28;20213;-80
2022/12/08 03:42:14;;;;;;;18.47;11.97;;;;;;;;;;4986338;28;20218;-80
2022/12/08 03:44:40;;;;;;;20.90;12.83;;;;;;;;;;5010509;28;20179;-81
2022/12/08 03:47:06;;;;;;;20.97;12.07;;;;;;;;;;5005206;28;20257;-81
2022/12/08 03:49:32;;;;;;;19.37;12.57;;;;;;;;;;5016507;28;20820;-81
2022/12/08 03:51:59;;;;;;;21.87;13.30;;;;;;;;;;4996398;28;20281;-81
2022/12/08 03:54:25;;;;;;;17.73;12.20;;;;;;;;;;5010308;28;20226;-81
2022/12/08 03:56:51;;;;;;;18.90;12.43;;;;;;;;;;4981453;28;20284;-80
2022/12/08 03:59:17;;;;;;;21.77;13.77;;;;;;;;;;5007554;28;20214;-80
2022/12/08 04:01:43;;;;;;;19.77;12.07;;;;;;;;;;5011432;28;20195;-81
2022/12/08 04:04:09;;;;;;;18.93;11.53;;;;;;;;;;5016937;28;20195;-81
2022/12/08 04:06:35;;;;;;;18.27;11.93;;;;;;;;;;5017825;28;20199;-81
2022/12/08 04:09:01;;;;;;;18.23;12.37;;;;;;;;;;5009195;28;20218;-81
2022/12/08 04:11:28;;;;;;;19.03;12.07;;;;;;;;;;5014182;28;20186;-81
2022/12/08 04:13:54;;;;;;;17.93;11.60;;;;;;;;;;5017390;28;20219;-81
2022/12/08 04:16:21;;;;;;;19.20;12.97;;;;;;;;;;5006869;28;20186;-81
2022/12/08 04:18:48;;;;;;;15.83;11.63;;;;;;;;;;4992628;28;20261;-80
2022/12/08 04:21:14;;;;;;;18.07;12.17;;;;;;;;;;5019082;28;20265;-81
2022/12/08 04:23:40;;;;;;;16.97;11.43;;;;;;;;;;4999618;28;20194;-81
2022/12/08 04:26:07;;;;;;;20.43;12.77;;;;;;;;;;5005394;28;20215;-80
2022/12/08 04:28:33;;;;;;;20.77;13.93;;;;;;;;;;5005307;28;20290;-81
2022/12/08 04:30:59;;;;;;;21.13;13.27;;;;;;;;;;5001601;28;20187;-81
2022/12/08 04:33:26;;;;;;;17.90;11.70;;;;;;;;;;5016569;28;20228;-81
2022/12/08 04:35:52;;;;;;;19.83;12.60;;;;;;;;;;5011842;28;20269;-81
2022/12/08 04:38:18;;;;;;;19.07;12.43;;;;;;;;;;4996191;28;20203;-81
2022/12/08 04:40:45;;;;;;;19.50;12.50;;;;;;;;;;5009878;28;20183;-81
2022/12/08 04:43:11;;;;;;;20.00;12.50;;;;;;;;;;5017786;28;20226;-80
2022/12/08 04:45:39;;;;;;;20.77;13.00;;;;;;;;;;5017530;28;20187;-81
2022/12/08 04:48:05;;;;;;;19.10;12.20;;;;;;;;;;5008919;28;20210;-81
2022/12/08 04:50:31;;;;;;;16.53;11.03;;;;;;;;;;5013783;28;20179;-81
2022/12/08 04:52:58;;;;;;;20.30;12.10;;;;;;;;;;5014959;28;20483;-81
2022/12/08 04:55:24;;;;;;;16.27;10.80;;;;;;;;;;5000099;28;20188;-81
2022/12/08 04:57:50;;;;;;;18.17;11.97;;;;;;;;;;5017385;28;20200;-81
2022/12/08 05:00:17;;;;;;;18.57;12.40;;;;;;;;;;5020136;28;20210;-81
2022/12/08 05:02:43;;;;;;;20.47;12.67;;;;;;;;;;5014081;28;20208;-80
2022/12/08 05:05:09;;;;;;;18.20;12.57;;;;;;;;;;5007337;28;20191;-81
2022/12/08 05:07:35;;;;;;;18.87;12.50;;;;;;;;;;5021942;28;20202;-80
2022/12/08 05:10:02;;;;;;;18.67;12.20;;;;;;;;;;5008798;28;20702;-81
2022/12/08 05:12:28;;;;;;;19.80;12.07;;;;;;;;;;5012186;28;20434;-81
2022/12/08 05:14:54;;;;;;;19.47;12.27;;;;;;;;;;4999080;28;20267;-80
2022/12/08 05:17:20;;;;;;;18.50;12.27;;;;;;;;;;5001250;28;20198;-81
2022/12/08 05:19:46;;;;;;;22.70;13.00;;;;;;;;;;4989975;28;20687;-80
2022/12/08 05:22:12;;;;;;;20.23;13.43;;;;;;;;;;4990785;28;20564;-81
2022/12/08 05:24:39;;;;;;;18.60;11.50;;;;;;;;;;5001920;28;20647;-80
2022/12/08 05:27:05;;;;;;;17.67;12.10;;;;;;;;;;5016290;28;20224;-80
2022/12/08 05:29:31;;;;;;;23.70;13.10;;;;;;;;;;5014483;28;20195;-81
2022/12/08 05:31:57;;;;;;;18.40;12.20;;;;;;;;;;5012738;28;20186;-81
2022/12/08 05:34:23;;;;;;;18.87;11.87;;;;;;;;;;5021163;28;20187;-81
2022/12/08 05:36:49;;;;;;;22.57;12.93;;;;;;;;;;5008433;28;20225;-81
2022/12/08 05:39:15;;;;;;;18.90;11.83;;;;;;;;;;5011637;28;20801;-80
2022/12/08 05:41:41;;;;;;;18.20;12.13;;;;;;;;;;5003687;28;20186;-81
2022/12/08 05:44:08;;;;;;;21.23;12.47;;;;;;;;;;5008842;28;20201;-80
2022/12/08 05:46:34;;;;;;;18.50;12.68;;;;;;;;;;5012906;28;20441;-81
2022/12/08 05:49:00;;;;;;;21.43;13.10;;;;;;;;;;5013070;28;20302;-81
2022/12/08 05:51:27;;;;;;;21.00;12.60;;;;;;;;;;5000597;28;20191;-81
2022/12/08 05:53:54;;;;;;;22.27;12.93;;;;;;;;;;5020810;28;20182;-81
2022/12/08 05:56:20;;;;;;;19.23;12.70;;;;;;;;;;5005834;28;20265;-81
2022/12/08 05:58:47;;;;;;;18.87;11.97;;;;;;;;;;4995110;28;20199;-81
2022/12/08 06:01:29;;;;;;;18.40;12.10;;;;;;;;;;5010050;28;20217;-81
2022/12/08 06:03:57;;;;;;;18.80;12.23;;;;;;;;;;4987766;28;20187;-81
2022/12/08 06:06:23;;;;;;;19.77;12.70;;;;;;;;;;4987094;28;20239;-81
2022/12/08 06:08:49;;;;;;;22.30;12.83;;;;;;;;;;5015183;28;20657;-81
2022/12/08 06:11:27;;;;;;;16.47;11.33;;;;;;;;;;5018232;28;20179;-80
2022/12/08 06:13:54;;;;;;;20.30;14.02;;;;;;;;;;5006690;28;20430;-81
2022/12/08 06:16:20;;;;;;;19.67;12.17;;;;;;;;;;5015691;28;20694;-78
2022/12/08 06:18:47;;;;;;;19.87;12.90;;;;;;;;;;5016005;28;20210;-78
2022/12/08 06:21:14;;;;;;;20.30;13.27;;;;;;;;;;5010453;28;20429;-78
2022/12/08 06:23:40;;;;;;;20.47;12.93;;;;;;;;;;5012752;28;20179;-83
2022/12/08 06:26:08;;;;;;;24.80;15.53;;;;;;;;;;4992905;28;20197;-79
2022/12/08 06:28:34;;;;;;;21.07;13.67;;;;;;;;;;5008230;28;20780;-78
2022/12/08 06:31:05;;;;;;;19.93;12.97;;;;;;;;;;5017873;28;20191;-81
2022/12/08 06:33:32;;;;;;;23.57;14.90;;;;;;;;;;4990319;28;20190;-81
2022/12/08 06:35:58;;;;;;;25.63;15.87;;;;;;;;;;4996896;28;20285;-81
2022/12/08 06:38:24;;;;;;;18.23;12.50;;;;;;;;;;5018691;28;20660;-77
2022/12/08 06:40:54;;;;;;;21.53;13.33;;;;;;;;;;5010327;28;20191;-76
2022/12/08 06:43:20;;;;;;;19.40;11.83;;;;;;;;;;5008486;28;20212;-76
2022/12/08 06:45:46;;;;;;;17.47;11.70;;;;;;;;;;5007498;28;20706;-75
2022/12/08 06:48:12;;;;;;;19.80;12.47;;;;;;;;;;5006628;28;20752;-78
2022/12/08 06:50:38;;;;;;;19.30;12.23;;;;;;;;;;4996006;28;20190;-80
2022/12/08 06:53:05;;;;;;;20.30;14.53;;;;;;;;;;5004139;28;20882;-77
2022/12/08 06:55:31;;;;;;;18.47;12.60;;;;;;;;;;5000651;28;20184;-77
2022/12/08 06:57:57;;;;;;;18.37;12.00;;;;;;;;;;5022348;28;20278;-77
2022/12/08 07:00:24;;;;;;;18.43;12.30;;;;;;;;;;4995121;28;20217;-84
2022/12/08 07:02:50;;;;;;;18.00;11.43;;;;;;;;;;5017598;28;20198;-80
2022/12/08 07:05:16;;;;;;;18.30;13.35;;;;;;;;;;5007330;28;20522;-75
2022/12/08 07:07:42;;;;;;;17.53;11.60;;;;;;;;;;4996114;28;20726;-74
2022/12/08 07:10:08;;;;;;;18.07;11.90;;;;;;;;;;4997098;28;20207;-74
2022/12/08 07:12:34;;;;;;;16.50;11.63;;;;;;;;;;5003383;28;20187;-77
2022/12/08 07:15:00;;;;;;;19.20;12.38;;;;;;;;;;5008671;28;20506;-76
2022/12/08 07:17:26;;;;;;;17.40;11.20;;;;;;;;;;5017210;28;20214;-73
2022/12/08 07:19:53;;;;;;;17.80;10.70;;;;;;;;;;5012851;28;20282;-79
2022/12/08 07:22:19;;;;;;;19.13;12.03;;;;;;;;;;5001680;28;20179;-79
2022/12/08 07:24:45;;;;;;;18.93;11.40;;;;;;;;;;5003752;28;20270;-82
2022/12/08 07:27:11;;;;;;;18.23;11.77;;;;;;;;;;5014777;28;20238;-80
2022/12/08 07:29:37;;;;;;;18.43;11.83;;;;;;;;;;5003640;28;20208;-79
2022/12/08 07:32:03;;;;;;;16.13;11.33;;;;;;;;;;5013186;28;20190;-81
2022/12/08 07:34:30;;;;;;;26.97;16.13;;;;;;;;;;5016874;28;20176;-81
2022/12/08 07:36:56;;;;;;;20.10;12.40;;;;;;;;;;5016900;28;20188;-81
2022/12/08 07:39:22;;;;;;;22.63;13.30;;;;;;;;;;4996410;28;20306;-81
2022/12/08 07:41:48;;;;;;;19.93;12.50;;;;;;;;;;5006709;28;20255;-81
2022/12/08 07:44:14;;;;;;;21.33;12.50;;;;;;;;;;4992478;28;20187;-81
2022/12/08 07:46:41;;;;;;;19.90;12.10;;;;;;;;;;5019597;28;20290;-81
2022/12/08 07:49:07;;;;;;;27.07;15.57;;;;;;;;;;5016835;28;20211;-81
2022/12/08 07:51:33;;;;;;;19.20;12.70;;;;;;;;;;5031434;28;20179;-81
2022/12/08 07:53:59;;;;;;;22.33;13.23;;;;;;;;;;5031572;28;20182;-82
2022/12/08 07:56:25;;;;;;;22.37;12.10;;;;;;;;;;5017970;28;20198;-81
2022/12/08 07:58:52;;;;;;;20.70;11.93;;;;;;;;;;5005632;28;20214;-81
2022/12/08 08:01:25;;;;;;;21.27;13.43;;;;;;;;;;5014503;28;20210;-81
2022/12/08 08:03:52;;;;;;;19.93;13.10;;;;;;;;;;4992688;28;20704;-81
2022/12/08 08:06:18;;;;;;;22.97;13.00;;;;;;;;;;5014655;28;20676;-82
2022/12/08 08:08:44;;;;;;;23.43;14.03;;;;;;;;;;5031479;28;20677;-82
2022/12/08 08:11:10;;;;;;;23.87;13.77;;;;;;;;;;5032112;28;20724;-82
2022/12/08 08:13:36;;;;;;;20.73;13.33;;;;;;;;;;5022335;28;20178;-81
2022/12/08 08:16:04;;;;;;;23.57;14.17;;;;;;;;;;5014639;28;20547;-82
2022/12/08 08:18:30;;;;;;;22.37;12.83;;;;;;;;;;5012444;28;20203;-82
2022/12/08 08:20:57;;;;;;;19.77;12.27;;;;;;;;;;4994596;28;20245;-82
2022/12/08 08:23:23;;;;;;;27.17;14.80;;;;;;;;;;4987470;28;20199;-82
2022/12/08 08:25:49;;;;;;;23.07;13.40;;;;;;;;;;4997031;28;20243;-81
2022/12/08 08:28:15;;;;;;;23.77;12.63;;;;;;;;;;4990469;28;20728;-83
2022/12/08 08:30:41;;;;;;;23.07;13.37;;;;;;;;;;5009182;28;20183;-82
2022/12/08 08:33:07;;;;;;;22.97;13.43;;;;;;;;;;5026294;28;20795;-82
2022/12/08 08:35:34;;;;;;;20.97;13.00;;;;;;;;;;5027223;28;20639;-81
2022/12/08 08:38:00;;;;;;;22.53;12.83;;;;;;;;;;4995041;28;20199;-82
2022/12/08 08:40:26;;;;;;;22.87;13.27;;;;;;;;;;4971932;28;20281;-82
2022/12/08 08:42:52;;;;;;;21.00;13.60;;;;;;;;;;4988143;28;20187;-82
2022/12/08 08:45:18;;;;;;;25.77;13.87;;;;;;;;;;4972233;28;20187;-82
2022/12/08 08:47:47;;;;;;;22.23;13.57;;;;;;;;;;5008263;28;20210;-82
2022/12/08 08:50:14;;;;;;;22.00;13.10;;;;;;;;;;4998219;28;20230;-82
2022/12/08 08:52:41;;;;;;;23.53;12.57;;;;;;;;;;5009151;28;20812;-82
2022/12/08 08:55:07;;;;;;;23.90;13.43;;;;;;;;;;4975537;28;20235;-82
2022/12/08 08:57:33;;;;;;;23.10;13.47;;;;;;;;;;4995494;28;20892;-82
2022/12/08 09:00:00;;;;;;;20.53;13.07;;;;;;;;;;5029227;28;20211;-82
2022/12/08 09:02:26;;;;;;;21.23;13.13;;;;;;;;;;5028909;28;20178;-82
2022/12/08 09:04:52;;;;;;;20.20;13.20;;;;;;;;;;5014024;28;20269;-82
2022/12/08 09:07:19;;;;;;;24.47;13.83;;;;;;;;;;4993517;28;20308;-82
2022/12/08 09:09:46;;;;;;;23.37;13.33;;;;;;;;;;5027816;28;20201;-82
2022/12/08 09:12:12;;;;;;;21.47;12.40;;;;;;;;;;4994867;28;20174;-82
2022/12/08 09:14:38;;;;;;;25.63;12.97;;;;;;;;;;5011745;28;20182;-82
2022/12/08 09:17:05;;;;;;;24.53;12.37;;;;;;;;;;5023205;28;20210;-81
2022/12/08 09:19:31;;;;;;;22.17;12.50;;;;;;;;;;5005235;28;20217;-82
2022/12/08 09:22:00;;;;;;;21.40;12.53;;;;;;;;;;5014653;28;20183;-82
2022/12/08 09:24:26;;;;;;;21.47;13.37;;;;;;;;;;5014112;28;20712;-81
2022/12/08 09:26:52;;;;;;;23.17;13.17;;;;;;;;;;5010866;28;20863;-81
2022/12/08 09:29:18;;;;;;;22.03;13.30;;;;;;;;;;5013956;28;20205;-82
2022/12/08 09:31:44;;;;;;;22.30;13.27;;;;;;;;;;5019219;28;20266;-82
2022/12/08 09:34:11;;;;;;;22.93;13.17;;;;;;;;;;4992050;28;20188;-82
2022/12/08 09:36:38;;;;;;;20.77;12.20;;;;;;;;;;4992555;28;20187;-82
2022/12/08 09:39:04;;;;;;;21.53;13.43;;;;;;;;;;5000981;28;20222;-82
2022/12/08 09:41:35;;;;;;;22.87;12.80;;;;;;;;;;5011846;28;20182;-81
2022/12/08 09:44:08;;;;;;;20.77;13.13;;;;;;;;;;5012095;28;20520;-82
2022/12/08 09:46:35;;;;;;;22.23;12.83;;;;;;;;;;4992652;28;20168;-82
2022/12/08 09:49:02;;;;;;;20.87;13.60;;;;;;;;;;5026483;28;20191;-82
2022/12/08 09:51:31;;;;;;;23.03;13.17;;;;;;;;;;4999232;28;20220;-82
2022/12/08 09:54:00;;;;;;;25.10;13.23;;;;;;;;;;5031952;28;20472;-82
2022/12/08 09:56:28;;;;;;;22.57;13.27;;;;;;;;;;4985697;28;20183;-82
2022/12/08 09:59:14;;;;;;;21.07;12.73;;;;;;;;;;5010820;28;20275;-82
2022/12/08 10:01:40;;;;;;;21.97;12.83;;;;;;;;;;5008493;28;20544;-82
2022/12/08 10:04:17;;;;;;;23.37;14.43;;;;;;;;;;4998253;28;20266;-82
2022/12/08 10:06:47;;;;;;;18.57;12.70;;;;;;;;;;5021482;28;20252;-81
2022/12/08 10:09:32;;;;;;;21.30;12.30;;;;;;;;;;4989629;28;20195;-81
2022/12/08 10:12:10;;;;;;;20.50;12.53;;;;;;;;;;5022440;28;20298;-82
2022/12/08 10:14:41;;;;;;;20.23;12.63;;;;;;;;;;5013933;28;20187;-82
2022/12/08 10:17:17;;;;;;;22.80;13.67;;;;;;;;;;5013998;28;20175;-81
2022/12/08 10:19:45;;;;;;;22.07;12.43;;;;;;;;;;5020159;28;20207;-82
2022/12/08 10:22:14;;;;;;;18.87;12.70;;;;;;;;;;5033179;28;20281;-82
2022/12/08 10:24:43;;;;;;;19.77;12.13;;;;;;;;;;4999567;28;20186;-81
2022/12/08 10:27:12;;;;;;;21.37;12.53;;;;;;;;;;5014661;28;20221;-82
2022/12/08 10:29:39;;;;;;;19.77;12.60;;;;;;;;;;4998730;28;20252;-82
2022/12/08 10:32:13;;;;;;;18.10;11.70;;;;;;;;;;5005342;28;20194;-82
2022/12/08 10:34:58;;;;;;;20.43;12.60;;;;;;;;;;5032112;28;20239;-82
2022/12/08 10:37:24;;;;;;;18.57;12.10;;;;;;;;;;5031388;28;20210;-82
2022/12/08 10:39:59;;;;;;;17.43;11.93;;;;;;;;;;5022663;28;20219;-82
2022/12/08 10:42:28;;;;;;;22.63;12.83;;;;;;;;;;4992200;28;20171;-82
2022/12/08 10:44:58;;;;;;;19.53;12.07;;;;;;;;;;4993745;28;20168;-82
2022/12/08 10:47:26;;;;;;;19.77;12.23;;;;;;;;;;5002524;28;20211;-84
2022/12/08 10:50:07;;;;;;;18.77;12.23;;;;;;;;;;5019451;28;20618;-84
2022/12/08 10:52:37;;;;;;;23.27;12.00;;;;;;;;;;5008216;28;20191;-86
2022/12/08 10:55:04;;;;;;;18.27;11.23;;;;;;;;;;5006285;28;20254;-81
2022/12/08 10:57:30;;;;;;;21.67;13.17;;;;;;;;;;4974154;28;20179;-84
2022/12/08 10:59:56;;;;;;;17.10;11.90;;;;;;;;;;5008960;28;20222;-80
2022/12/08 11:02:23;;;;;;;17.97;11.63;;;;;;;;;;5020473;28;20258;-79
2022/12/08 11:04:57;;;;;;;18.47;11.77;;;;;;;;;;4989871;28;20211;-81
2022/12/08 11:07:24;;;;;;;22.93;12.83;;;;;;;;;;5006542;28;20261;-81
2022/12/08 11:09:54;;;;;;;20.13;12.33;;;;;;;;;;4977393;28;20262;-85
2022/12/08 11:12:21;;;;;;;18.83;12.80;;;;;;;;;;5008373;28;20179;-83
2022/12/08 11:14:55;;;;;;;19.60;12.13;;;;;;;;;;4989267;28;20222;-83
2022/12/08 11:17:21;;;;;;;19.33;12.27;;;;;;;;;;5010702;28;20706;-83
2022/12/08 11:20:06;;;;;;;18.10;11.43;;;;;;;;;;5008583;28;20211;-84
2022/12/08 11:22:34;;;;;;;21.33;12.30;;;;;;;;;;5013787;28;20186;-84
2022/12/08 11:25:01;;;;;;;17.80;11.33;;;;;;;;;;5023791;28;20187;-82
2022/12/08 11:27:27;;;;;;;17.50;11.23;;;;;;;;;;5006902;28;20323;-85
2022/12/08 11:29:53;;;;;;;19.27;11.17;;;;;;;;;;4963351;28;20211;-84
2022/12/08 11:32:20;;;;;;;17.20;11.50;;;;;;;;;;5029875;28;20821;-85
2022/12/08 11:34:48;;;;;;;18.43;11.07;;;;;;;;;;5032460;28;20186;-85
2022/12/08 11:37:34;;;;;;;16.93;11.27;;;;;;;;;;4995101;28;20248;-86
2022/12/08 11:40:02;;;;;;;19.03;12.90;;;;;;;;;;5014491;28;20207;-82
2022/12/08 11:42:31;;;;;;;17.67;11.47;;;;;;;;;;5011240;28;20248;-83
2022/12/08 11:44:58;;;;;;;18.33;12.17;;;;;;;;;;5010191;28;20262;-83
2022/12/08 11:47:24;;;;;;;16.83;10.73;;;;;;;;;;4988276;28;20231;-84
2022/12/08 11:50:01;;;;;;;16.53;11.00;;;;;;;;;;4982993;28;20203;-84
2022/12/08 11:52:33;;;;;;;17.03;11.67;;;;;;;;;;5000587;28;20281;-85
2022/12/08 11:55:13;;;;;;;15.67;10.30;;;;;;;;;;4993953;28;20191;-83
2022/12/08 11:57:39;;;;;;;14.53;10.33;;;;;;;;;;5000880;28;20279;-84
2022/12/08 12:00:06;;;;;;;17.73;10.97;;;;;;;;;;4974693;28;20211;-84
2022/12/08 12:02:41;;;;;;;16.70;10.47;;;;;;;;;;4982815;28;20254;-85
2022/12/08 12:05:10;;;;;;;15.30;10.57;;;;;;;;;;4991723;28;20864;-85
2022/12/08 12:07:57;;;;;;;16.13;11.27;;;;;;;;;;5002080;28;20205;-79
2022/12/08 12:10:23;;;;;;;14.53;10.93;;;;;;;;;;5000154;28;20210;-77
2022/12/08 12:12:49;;;;;;;16.27;10.27;;;;;;;;;;5008494;28;20286;-80
2022/12/08 12:15:22;;;;;;;15.20;10.50;;;;;;;;;;5023030;28;20310;-79
2022/12/08 12:17:55;;;;;;;14.13;10.00;;;;;;;;;;5009690;28;20179;-79
2022/12/08 12:20:41;;;;;;;14.00;9.73;;;;;;;;;;5008340;28;20729;-78
2022/12/08 12:23:22;;;;;;;13.97;10.27;;;;;;;;;;5000460;28;20232;-79
2022/12/08 12:25:58;;;;;;;15.10;10.17;;;;;;;;;;5008697;28;20195;-82
2022/12/08 12:28:26;;;;;;;19.70;10.43;;;;;;;;;;5003449;28;20325;-80
2022/12/08 12:31:05;;;;;;;13.73;9.83;;;;;;;;;;5000053;28;20179;-78
2022/12/08 12:33:31;;;;;;;15.63;10.50;;;;;;;;;;5008959;28;20182;-79
2022/12/08 12:36:01;;;;;;;15.30;10.60;;;;;;;;;;4986806;28;20184;-82
2022/12/08 12:38:59;;;;;;;14.47;10.27;;;;;;;;;;5006732;28;20226;-79
2022/12/08 12:41:49;;;;;;;16.43;10.60;;;;;;;;;;4973580;28;20707;-79
2022/12/08 12:44:21;;;;;;;15.10;9.93;;;;;;;;;;5009648;28;20187;-81
2022/12/08 12:46:47;;;;;;;13.10;9.83;;;;;;;;;;5001652;28;20207;-76
2022/12/08 12:49:32;;;;;;;14.40;9.80;;;;;;;;;;5005792;28;20252;-79
2022/12/08 12:51:58;;;;;;;15.40;10.03;;;;;;;;;;5009730;28;20865;-79
2022/12/08 12:54:25;;;;;;;13.93;9.97;;;;;;;;;;5008659;28;20195;-79
2022/12/08 12:56:51;;;;;;;14.80;9.67;;;;;;;;;;5006692;28;20180;-76
2022/12/08 12:59:22;;;;;;;13.70;9.40;;;;;;;;;;5008308;28;20214;-79
2022/12/08 13:01:52;;;;;;;14.53;10.40;;;;;;;;;;5008782;28;20214;-78
2022/12/08 13:04:18;;;;;;;14.40;9.27;;;;;;;;;;5000775;28;20175;-78
2022/12/08 13:06:46;;;;;;;12.77;8.97;;;;;;;;;;5007064;28;20589;-78
2022/12/08 13:09:19;;;;;;;12.50;9.07;;;;;;;;;;5006967;28;20199;-77
2022/12/08 13:11:50;;;;;;;15.00;9.43;;;;;;;;;;5007527;28;20179;-78
2022/12/08 13:14:33;;;;;;;12.93;9.07;;;;;;;;;;5008989;28;20213;-77
2022/12/08 13:17:01;;;;;;;13.33;9.00;;;;;;;;;;5002939;28;20200;-77
2022/12/08 13:19:29;;;;;;;12.33;8.80;;;;;;;;;;5010801;28;20242;-77
2022/12/08 13:21:56;;;;;;;13.57;8.87;;;;;;;;;;5013259;28;20266;-77
2022/12/08 13:24:25;;;;;;;12.90;8.87;;;;;;;;;;5011477;28;20199;-77
2022/12/08 13:26:51;;;;;;;12.67;8.70;;;;;;;;;;5017786;28;20834;-77
2022/12/08 13:29:18;;;;;;;13.60;8.67;;;;;;;;;;5011269;28;20293;-78
2022/12/08 13:31:46;;;;;;;11.80;8.53;;;;;;;;;;5018487;28;20252;-77
2022/12/08 13:34:12;;;;;;;11.57;8.20;;;;;;;;;;5010632;28;20210;-77
2022/12/08 13:36:41;;;;;;;12.57;9.37;;;;;;;;;;5017530;28;20658;-78
2022/12/08 13:39:15;;;;;;;14.17;8.73;;;;;;;;;;5017137;28;20223;-78
2022/12/08 13:41:44;;;;;;;14.87;8.90;;;;;;;;;;5009349;28;20181;-78
2022/12/08 13:44:22;;;;;;;13.80;9.17;;;;;;;;;;5009590;28;20179;-77
2022/12/08 13:46:53;;;;;;;12.83;8.50;;;;;;;;;;5025552;28;20267;-77
2022/12/08 13:49:25;;;;;;;14.00;8.97;;;;;;;;;;5015481;28;20218;-77
2022/12/08 13:51:53;;;;;;;12.83;9.07;;;;;;;;;;5011286;28;20171;-77
2022/12/08 13:54:28;;;;;;;15.47;8.90;;;;;;;;;;5011125;28;20187;-78
2022/12/08 13:56:55;;;;;;;11.57;8.33;;;;;;;;;;5010838;28;20800;-77
2022/12/08 13:59:21;;;;;;;12.67;8.67;;;;;;;;;;5012333;28;20206;-77
2022/12/08 14:01:49;;;;;;;14.80;8.80;;;;;;;;;;5018563;28;20217;-77
2022/12/08 14:04:19;;;;;;;12.53;8.13;;;;;;;;;;5021985;28;20194;-78
2022/12/08 14:06:50;;;;;;;13.00;9.43;;;;;;;;;;5010860;28;20187;-77
2022/12/08 14:09:21;;;;;;;13.43;9.20;;;;;;;;;;5011252;28;20648;-77
2022/12/08 14:11:51;;;;;;;12.23;8.20;;;;;;;;;;5009795;28;20179;-78
2022/12/08 14:14:19;;;;;;;12.90;8.77;;;;;;;;;;5000898;28;20239;-77
2022/12/08 14:16:52;;;;;;;11.83;8.30;;;;;;;;;;5008555;28;20175;-77
2022/12/08 14:19:23;;;;;;;14.80;10.73;;;;;;;;;;5011947;28;20272;-77
2022/12/08 14:22:07;;;;;;;14.20;8.60;;;;;;;;;;5010966;28;20179;-77
2022/12/08 14:24:34;;;;;;;13.57;9.20;;;;;;;;;;5005407;28;20190;-77
2022/12/08 14:27:01;;;;;;;15.43;8.93;;;;;;;;;;5012258;28;20199;-77
2022/12/08 14:29:33;;;;;;;11.37;8.20;;;;;;;;;;5022942;28;20203;-77
2022/12/08 14:31:59;;;;;;;14.40;9.10;;;;;;;;;;4999430;28;20179;-77